Holland, MI (49423)

5:20 AM EDT on September 04, 2015 (GMT -0400)
Holland Aquatic Center | | Change Station
CLOSE
Current Station
Personal Weather Station
Location: Holland, MI
Elevation: 627 ft
Nearby Weather Stations

Elev 627 ft 42.78 °N, 86.12 °W | Updated 12 minutes ago

Overcast
Overcast
67.8 °F
Feels Like 67.8 °F
N
0.0
Wind Variable Wind from SW

Today
High -- | Low -- °F
--% Chance of Precip.
Yesterday
High -- | Low -- °F
Precip. -- in
7:12 AM 8:14 PM
Waning Gibbous, 61% visible
Pressure 29.95 in
Visibility 10.0 miles
Clouds Overcast 1000 ft
Dew Point 66 °F
Humidity 94%
Rainfall 0.00 in
Snow Depth Not available.
UV 0 out of 12
Pollen 8.20 out of 12
Air Quality Not available.
Flu Activity Not available.
METAR KBIV 040853Z AUTO 29003KT 10SM OVC010 21/19 A2996 RMK AO2 SLP141 T02110194 53004
Pressure 29.95 in
Visibility 10.0 miles
Clouds Overcast 1000 ft
Dew Point 66 °F
Humidity 94%
Rainfall 0.00 in
Snow Depth Not available.
UV 0 out of 12
Pollen 8.20 out of 12
Air Quality Not available.
Flu Activity Not available.
METAR KBIV 040853Z AUTO 29003KT 10SM OVC010 21/19 A2996 RMK AO2 SLP141 T02110194 53004

10-Day Weather Forecast

×

Almanac

Astronomy

Sep. 04, 2015 Rise Set
Actual Time
Civil Twilight
Nautical Twilight
Astronomical Twilight
Moon
Length of Visible Light
Length of Day
Tomorrow will be .
, % of the Moon is Illuminated

Today's Extremes

State Highs State Lows

Community

WunderPhotos

Upload Photos

1,852,142 photos uploaded!

WunderBlogs® & News

Nearby

Air Quality

  Air Quality AQ Index Pollutant
Not available.

Snow Depth

Station Depth Elevation

Earthquake Activity

City Distance Mag. Time & Date
Minimum magnitude displayed is 2.5.

Coastal Water Temperatures

Place Temperature

Stations

Nearby Weather Stations

Station Location Temp. Windchill Dew Point Humidity Wind Precip. Elev Updated Type